South Milwaukee, WI (53172)

8:19 PM CDT on April 23, 2017 (GMT -0500)
South Milwaukee | | Change Station

Elev 687 ft 42.91 °N, 87.88 °W | Updated 5 seconds ago

Partly Cloudy
Partly Cloudy
39.0 °F
Feels Like 39 °F
N
2.0
Wind Variable Wind from North
Gusts 6.0 mph

Today
High -- | Low -- °F
--% Chance of Precip.
Yesterday
High -- | Low -- °F
Precip. -- in
Pressure 30.10 in
Visibility 10.0 miles
Clouds Few 20000 ft
Mostly Cloudy 25000 ft
Windchill 39 °F
Dew Point 36 °F
Humidity 87%
Rainfall 0.00 in
Snow Depth Not available.
5:56 AM 7:43 PM
Waning Crescent, 8% visible
METAR KMKE 240052Z 04010KT 10SM FEW200 BKN250 04/01 A3008 RMK AO2 SLP191 T00440011
Pressure 30.10 in
Visibility 10.0 miles
Clouds Few 20000 ft
Mostly Cloudy 25000 ft
Windchill 39 °F
Dew Point 36 °F
Humidity 87%
Rainfall 0.00 in
Snow Depth Not available.
5:56 AM 7:43 PM
Waning Crescent, 8% visible
METAR KMKE 240052Z 04010KT 10SM FEW200 BKN250 04/01 A3008 RMK AO2 SLP191 T00440011

Get Severe Weather Alerts

Thanks for signing up!

Be on the lookout for a verification email in your inbox.

You'll start receiving the daily forecast at 8 AM.

×

10-Day Weather Forecast

Almanac

Astronomy

Apr. 23, 2017 Rise Set
Actual Time
Civil Twilight
Nautical Twilight
Astronomical Twilight
Moon
Length of Visible Light
Length of Day
Tomorrow will be .
, % of the Moon is Illuminated

Today's Extremes

State Highs State Lows

Community

WunderPhotos

WunderBlog® & News

Nearby

Air Quality

  Air Quality AQ Index Pollutant
Not available.

Snow Depth

Station Depth Elevation

Earthquake Activity

City Distance Mag. Time & Date
Minimum magnitude displayed is 2.5.

Coastal Water Temperatures

Place Temperature

Stations

Nearby Weather Stations

Station Location Temp. Windchill Dew Point Humidity Wind Precip. Elev Updated Type
                   

Watches & Warnings

There are currently no watches in effect.